sensor_id;sensor_type;location;lat;lon;timestamp;temperature;humidity
21033;DHT22;10675;47.976;7.824;2024-02-23T00:01:25;7.10;99.90
21033;DHT22;10675;47.976;7.824;2024-02-23T00:03:51;7.10;99.90
21033;DHT22;10675;47.976;7.824;2024-02-23T00:06:17;7.10;99.90
21033;DHT22;10675;47.976;7.824;2024-02-23T00:08:42;7.10;99.90
21033;DHT22;10675;47.976;7.824;2024-02-23T00:11:08;7.10;99.90
21033;DHT22;10675;47.976;7.824;2024-02-23T00:13:34;7.10;99.90
21033;DHT22;10675;47.976;7.824;2024-02-23T00:15:59;7.10;99.90
21033;DHT22;10675;47.976;7.824;2024-02-23T00:18:25;7.10;99.90
21033;DHT22;10675;47.976;7.824;2024-02-23T00:20:50;7.10;99.90
21033;DHT22;10675;47.976;7.824;2024-02-23T00:23:16;7.10;99.90
21033;DHT22;10675;47.976;7.824;2024-02-23T00:25:42;7.00;99.90
21033;DHT22;10675;47.976;7.824;2024-02-23T00:28:07;7.00;99.90
21033;DHT22;10675;47.976;7.824;2024-02-23T00:30:33;7.00;99.90
21033;DHT22;10675;47.976;7.824;2024-02-23T00:32:58;7.00;99.90
21033;DHT22;10675;47.976;7.824;2024-02-23T00:35:24;6.90;99.90
21033;DHT22;10675;47.976;7.824;2024-02-23T00:37:49;6.90;99.90
21033;DHT22;10675;47.976;7.824;2024-02-23T00:40:15;6.90;99.90
21033;DHT22;10675;47.976;7.824;2024-02-23T00:42:41;6.90;99.90
21033;DHT22;10675;47.976;7.824;2024-02-23T00:45:07;6.80;99.90
21033;DHT22;10675;47.976;7.824;2024-02-23T00:47:32;6.80;99.90
21033;DHT22;10675;47.976;7.824;2024-02-23T00:49:58;6.80;99.90
21033;DHT22;10675;47.976;7.824;2024-02-23T00:52:24;6.80;99.90
21033;DHT22;10675;47.976;7.824;2024-02-23T00:54:50;6.80;99.90
21033;DHT22;10675;47.976;7.824;2024-02-23T00:57:15;6.70;99.90
21033;DHT22;10675;47.976;7.824;2024-02-23T00:59:43;6.70;99.90
21033;DHT22;10675;47.976;7.824;2024-02-23T01:02:09;6.70;99.90
21033;DHT22;10675;47.976;7.824;2024-02-23T01:04:34;6.70;99.90
21033;DHT22;10675;47.976;7.824;2024-02-23T01:07:00;6.60;99.90
21033;DHT22;10675;47.976;7.824;2024-02-23T01:09:25;6.60;99.90
21033;DHT22;10675;47.976;7.824;2024-02-23T01:11:51;6.50;99.90
21033;DHT22;10675;47.976;7.824;2024-02-23T01:14:16;6.50;99.90
21033;DHT22;10675;47.976;7.824;2024-02-23T01:16:42;6.50;99.90
21033;DHT22;10675;47.976;7.824;2024-02-23T01:19:07;6.50;99.90
21033;DHT22;10675;47.976;7.824;2024-02-23T01:21:34;6.50;99.90
21033;DHT22;10675;47.976;7.824;2024-02-23T01:23:59;6.50;99.90
21033;DHT22;10675;47.976;7.824;2024-02-23T01:26:26;6.40;99.90
21033;DHT22;10675;47.976;7.824;2024-02-23T01:28:52;6.40;99.90
21033;DHT22;10675;47.976;7.824;2024-02-23T01:31:18;6.40;99.90
21033;DHT22;10675;47.976;7.824;2024-02-23T01:33:44;6.40;99.90
21033;DHT22;10675;47.976;7.824;2024-02-23T01:36:09;6.40;99.90
21033;DHT22;10675;47.976;7.824;2024-02-23T01:38:35;6.30;99.90
21033;DHT22;10675;47.976;7.824;2024-02-23T01:41:01;6.30;99.90
21033;DHT22;10675;47.976;7.824;2024-02-23T01:43:27;6.30;99.90
21033;DHT22;10675;47.976;7.824;2024-02-23T01:45:52;6.30;99.90
21033;DHT22;10675;47.976;7.824;2024-02-23T01:48:19;6.30;99.90
21033;DHT22;10675;47.976;7.824;2024-02-23T01:50:44;6.20;99.90
21033;DHT22;10675;47.976;7.824;2024-02-23T01:53:11;6.40;99.90
21033;DHT22;10675;47.976;7.824;2024-02-23T01:55:40;6.40;99.90
21033;DHT22;10675;47.976;7.824;2024-02-23T01:58:07;6.20;99.90
21033;DHT22;10675;47.976;7.824;2024-02-23T02:00:34;6.20;99.90
21033;DHT22;10675;47.976;7.824;2024-02-23T02:03:00;6.20;99.90
21033;DHT22;10675;47.976;7.824;2024-02-23T02:05:26;6.20;99.90
21033;DHT22;10675;47.976;7.824;2024-02-23T02:07:53;6.10;99.90
21033;DHT22;10675;47.976;7.824;2024-02-23T02:10:24;6.10;99.90
21033;DHT22;10675;47.976;7.824;2024-02-23T02:12:49;6.10;99.90
21033;DHT22;10675;47.976;7.824;2024-02-23T02:15:15;6.10;99.90
21033;DHT22;10675;47.976;7.824;2024-02-23T02:17:40;6.10;99.90
21033;DHT22;10675;47.976;7.824;2024-02-23T02:20:11;6.10;99.90
21033;DHT22;10675;47.976;7.824;2024-02-23T02:22:37;6.20;99.90
21033;DHT22;10675;47.976;7.824;2024-02-23T02:25:02;6.10;99.90
21033;DHT22;10675;47.976;7.824;2024-02-23T02:27:28;6.10;99.90
21033;DHT22;10675;47.976;7.824;2024-02-23T02:29:54;6.10;99.90
21033;DHT22;10675;47.976;7.824;2024-02-23T02:32:19;6.10;99.90
21033;DHT22;10675;47.976;7.824;2024-02-23T02:34:45;6.10;99.90
21033;DHT22;10675;47.976;7.824;2024-02-23T02:37:10;6.20;99.90
21033;DHT22;10675;47.976;7.824;2024-02-23T02:39:36;6.20;99.90
21033;DHT22;10675;47.976;7.824;2024-02-23T02:42:02;6.20;99.90
21033;DHT22;10675;47.976;7.824;2024-02-23T02:44:27;6.30;99.90
21033;DHT22;10675;47.976;7.824;2024-02-23T02:46:56;6.30;99.90
21033;DHT22;10675;47.976;7.824;2024-02-23T02:49:22;6.30;99.90
21033;DHT22;10675;47.976;7.824;2024-02-23T02:51:47;6.30;99.90
21033;DHT22;10675;47.976;7.824;2024-02-23T02:54:13;6.30;99.90
21033;DHT22;10675;47.976;7.824;2024-02-23T02:56:42;6.40;99.90
21033;DHT22;10675;47.976;7.824;2024-02-23T02:59:09;6.40;99.90
21033;DHT22;10675;47.976;7.824;2024-02-23T03:01:35;6.40;99.90
21033;DHT22;10675;47.976;7.824;2024-02-23T03:04:01;6.50;99.90
21033;DHT22;10675;47.976;7.824;2024-02-23T03:06:26;6.40;99.90
21033;DHT22;10675;47.976;7.824;2024-02-23T03:08:52;6.40;99.90
21033;DHT22;10675;47.976;7.824;2024-02-23T03:11:17;6.50;99.90
21033;DHT22;10675;47.976;7.824;2024-02-23T03:13:43;6.40;99.90
21033;DHT22;10675;47.976;7.824;2024-02-23T03:16:33;6.40;99.90
21033;DHT22;10675;47.976;7.824;2024-02-23T03:18:59;6.50;99.90
21033;DHT22;10675;47.976;7.824;2024-02-23T03:21:25;6.50;99.90
21033;DHT22;10675;47.976;7.824;2024-02-23T03:23:50;6.60;99.90
21033;DHT22;10675;47.976;7.824;2024-02-23T03:26:16;6.50;99.90
21033;DHT22;10675;47.976;7.824;2024-02-23T03:28:42;6.50;99.90
21033;DHT22;10675;47.976;7.824;2024-02-23T03:31:08;6.50;99.90
21033;DHT22;10675;47.976;7.824;2024-02-23T03:33:34;6.50;99.90
21033;DHT22;10675;47.976;7.824;2024-02-23T03:35:59;6.50;99.90
21033;DHT22;10675;47.976;7.824;2024-02-23T03:38:25;6.50;99.90
21033;DHT22;10675;47.976;7.824;2024-02-23T03:40:50;6.50;99.90
21033;DHT22;10675;47.976;7.824;2024-02-23T03:43:15;6.50;99.90
21033;DHT22;10675;47.976;7.824;2024-02-23T03:45:41;6.50;99.90
21033;DHT22;10675;47.976;7.824;2024-02-23T03:48:07;6.40;99.90
21033;DHT22;10675;47.976;7.824;2024-02-23T03:50:32;6.40;99.90
21033;DHT22;10675;47.976;7.824;2024-02-23T03:52:58;6.40;99.90
21033;DHT22;10675;47.976;7.824;2024-02-23T03:55:23;6.30;99.90
21033;DHT22;10675;47.976;7.824;2024-02-23T03:57:49;6.30;99.90
21033;DHT22;10675;47.976;7.824;2024-02-23T04:00:15;6.30;99.90
21033;DHT22;10675;47.976;7.824;2024-02-23T04:02:40;6.20;99.90
21033;DHT22;10675;47.976;7.824;2024-02-23T04:05:09;6.20;99.90
21033;DHT22;10675;47.976;7.824;2024-02-23T04:07:35;6.20;99.90
21033;DHT22;10675;47.976;7.824;2024-02-23T04:10:00;6.10;99.90
21033;DHT22;10675;47.976;7.824;2024-02-23T04:12:29;6.10;99.90
21033;DHT22;10675;47.976;7.824;2024-02-23T04:14:56;6.10;99.90
21033;DHT22;10675;47.976;7.824;2024-02-23T04:17:22;6.10;99.90
21033;DHT22;10675;47.976;7.824;2024-02-23T04:19:52;6.00;99.90
21033;DHT22;10675;47.976;7.824;2024-02-23T04:22:18;6.00;99.90
21033;DHT22;10675;47.976;7.824;2024-02-23T04:24:43;6.00;99.90
21033;DHT22;10675;47.976;7.824;2024-02-23T04:27:09;5.90;99.90
21033;DHT22;10675;47.976;7.824;2024-02-23T04:29:35;5.90;99.90
21033;DHT22;10675;47.976;7.824;2024-02-23T04:32:01;5.90;99.90
21033;DHT22;10675;47.976;7.824;2024-02-23T04:34:27;5.90;99.90
21033;DHT22;10675;47.976;7.824;2024-02-23T04:36:53;5.90;99.90
21033;DHT22;10675;47.976;7.824;2024-02-23T04:39:18;5.80;99.90
21033;DHT22;10675;47.976;7.824;2024-02-23T04:41:59;5.80;99.90
21033;DHT22;10675;47.976;7.824;2024-02-23T04:44:25;5.80;99.90
21033;DHT22;10675;47.976;7.824;2024-02-23T04:46:50;5.80;99.90
21033;DHT22;10675;47.976;7.824;2024-02-23T04:49:16;5.80;99.90
21033;DHT22;10675;47.976;7.824;2024-02-23T04:51:41;5.80;99.90
21033;DHT22;10675;47.976;7.824;2024-02-23T04:54:07;5.80;99.90
21033;DHT22;10675;47.976;7.824;2024-02-23T04:56:33;5.90;99.90
21033;DHT22;10675;47.976;7.824;2024-02-23T04:59:01;5.90;99.90
21033;DHT22;10675;47.976;7.824;2024-02-23T05:01:26;5.90;99.90
21033;DHT22;10675;47.976;7.824;2024-02-23T05:03:52;5.90;99.90
21033;DHT22;10675;47.976;7.824;2024-02-23T05:06:18;5.80;99.90
21033;DHT22;10675;47.976;7.824;2024-02-23T05:08:43;5.80;99.90
21033;DHT22;10675;47.976;7.824;2024-02-23T05:11:09;5.80;99.90
21033;DHT22;10675;47.976;7.824;2024-02-23T05:13:35;5.70;99.90
21033;DHT22;10675;47.976;7.824;2024-02-23T05:16:00;5.70;99.90
21033;DHT22;10675;47.976;7.824;2024-02-23T05:18:26;5.70;99.90
21033;DHT22;10675;47.976;7.824;2024-02-23T05:20:51;5.70;99.90
21033;DHT22;10675;47.976;7.824;2024-02-23T05:23:17;5.60;99.90
21033;DHT22;10675;47.976;7.824;2024-02-23T05:25:43;5.60;99.90
21033;DHT22;10675;47.976;7.824;2024-02-23T05:28:08;5.60;99.90
21033;DHT22;10675;47.976;7.824;2024-02-23T05:30:34;5.60;99.90
21033;DHT22;10675;47.976;7.824;2024-02-23T05:32:59;5.60;99.90
21033;DHT22;10675;47.976;7.824;2024-02-23T05:35:28;5.60;99.90
21033;DHT22;10675;47.976;7.824;2024-02-23T05:37:54;5.50;99.90
21033;DHT22;10675;47.976;7.824;2024-02-23T05:40:20;5.50;99.90
21033;DHT22;10675;47.976;7.824;2024-02-23T05:42:46;5.60;99.90
21033;DHT22;10675;47.976;7.824;2024-02-23T05:45:12;5.50;99.90
21033;DHT22;10675;47.976;7.824;2024-02-23T05:47:40;5.40;99.90
21033;DHT22;10675;47.976;7.824;2024-02-23T05:50:08;5.40;99.90
21033;DHT22;10675;47.976;7.824;2024-02-23T05:52:37;5.50;99.90
21033;DHT22;10675;47.976;7.824;2024-02-23T05:55:03;5.50;99.90
21033;DHT22;10675;47.976;7.824;2024-02-23T05:57:29;5.50;99.90
21033;DHT22;10675;47.976;7.824;2024-02-23T05:59:55;5.50;99.90
21033;DHT22;10675;47.976;7.824;2024-02-23T06:02:21;5.50;99.90
21033;DHT22;10675;47.976;7.824;2024-02-23T06:04:47;5.50;99.90
21033;DHT22;10675;47.976;7.824;2024-02-23T06:07:13;5.60;99.90
21033;DHT22;10675;47.976;7.824;2024-02-23T06:09:41;5.60;99.90
21033;DHT22;10675;47.976;7.824;2024-02-23T06:12:07;5.60;99.90
21033;DHT22;10675;47.976;7.824;2024-02-23T06:14:32;5.50;99.90
21033;DHT22;10675;47.976;7.824;2024-02-23T06:16:58;5.50;99.90
21033;DHT22;10675;47.976;7.824;2024-02-23T06:19:23;5.50;99.90
21033;DHT22;10675;47.976;7.824;2024-02-23T06:21:49;5.60;99.90
21033;DHT22;10675;47.976;7.824;2024-02-23T06:24:16;5.60;99.90
21033;DHT22;10675;47.976;7.824;2024-02-23T06:26:41;5.60;99.90
21033;DHT22;10675;47.976;7.824;2024-02-23T06:29:07;5.60;99.90
21033;DHT22;10675;47.976;7.824;2024-02-23T06:31:39;5.60;99.90
21033;DHT22;10675;47.976;7.824;2024-02-23T06:34:05;5.60;99.90
21033;DHT22;10675;47.976;7.824;2024-02-23T06:36:31;5.60;99.90
21033;DHT22;10675;47.976;7.824;2024-02-23T06:38:56;5.60;99.90
21033;DHT22;10675;47.976;7.824;2024-02-23T06:41:22;5.60;99.90
21033;DHT22;10675;47.976;7.824;2024-02-23T06:43:48;5.60;99.90
21033;DHT22;10675;47.976;7.824;2024-02-23T06:46:13;5.60;99.90
21033;DHT22;10675;47.976;7.824;2024-02-23T06:48:39;5.60;99.90
21033;DHT22;10675;47.976;7.824;2024-02-23T06:51:06;5.60;99.90
21033;DHT22;10675;47.976;7.824;2024-02-23T06:53:35;5.60;99.90
21033;DHT22;10675;47.976;7.824;2024-02-23T06:56:00;5.50;99.90
21033;DHT22;10675;47.976;7.824;2024-02-23T06:58:26;5.60;99.90
21033;DHT22;10675;47.976;7.824;2024-02-23T07:00:52;5.60;99.90
21033;DHT22;10675;47.976;7.824;2024-02-23T07:03:17;5.70;99.90
21033;DHT22;10675;47.976;7.824;2024-02-23T07:05:44;5.70;99.90
21033;DHT22;10675;47.976;7.824;2024-02-23T07:08:10;5.80;99.90
21033;DHT22;10675;47.976;7.824;2024-02-23T07:10:36;5.80;99.90
21033;DHT22;10675;47.976;7.824;2024-02-23T07:13:01;5.80;99.90
21033;DHT22;10675;47.976;7.824;2024-02-23T07:15:27;5.80;99.90
21033;DHT22;10675;47.976;7.824;2024-02-23T07:17:52;5.90;99.90
21033;DHT22;10675;47.976;7.824;2024-02-23T07:20:18;5.90;99.90
21033;DHT22;10675;47.976;7.824;2024-02-23T07:22:47;6.10;99.90
21033;DHT22;10675;47.976;7.824;2024-02-23T07:25:19;6.10;99.90
21033;DHT22;10675;47.976;7.824;2024-02-23T07:27:48;6.10;99.90
21033;DHT22;10675;47.976;7.824;2024-02-23T07:30:17;6.30;99.90
21033;DHT22;10675;47.976;7.824;2024-02-23T07:32:43;6.40;99.90
21033;DHT22;10675;47.976;7.824;2024-02-23T07:35:09;6.70;99.90
21033;DHT22;10675;47.976;7.824;2024-02-23T07:37:36;6.80;99.90
21033;DHT22;10675;47.976;7.824;2024-02-23T07:40:01;6.90;99.90
21033;DHT22;10675;47.976;7.824;2024-02-23T07:42:30;6.80;99.90
21033;DHT22;10675;47.976;7.824;2024-02-23T07:44:56;6.90;99.90
21033;DHT22;10675;47.976;7.824;2024-02-23T07:47:21;6.90;99.90
21033;DHT22;10675;47.976;7.824;2024-02-23T07:49:47;6.70;99.90
21033;DHT22;10675;47.976;7.824;2024-02-23T07:52:13;6.50;99.90
21033;DHT22;10675;47.976;7.824;2024-02-23T07:54:38;6.40;99.90
21033;DHT22;10675;47.976;7.824;2024-02-23T07:57:04;6.40;99.90
21033;DHT22;10675;47.976;7.824;2024-02-23T07:59:32;6.40;99.90
21033;DHT22;10675;47.976;7.824;2024-02-23T08:01:58;6.50;99.90
21033;DHT22;10675;47.976;7.824;2024-02-23T08:04:24;6.70;99.90
21033;DHT22;10675;47.976;7.824;2024-02-23T08:06:49;6.80;99.90
21033;DHT22;10675;47.976;7.824;2024-02-23T08:09:16;6.90;99.90
21033;DHT22;10675;47.976;7.824;2024-02-23T08:11:43;6.90;99.90
21033;DHT22;10675;47.976;7.824;2024-02-23T08:14:08;6.90;99.90
21033;DHT22;10675;47.976;7.824;2024-02-23T08:16:34;6.90;99.90
21033;DHT22;10675;47.976;7.824;2024-02-23T08:18:59;6.90;99.90
21033;DHT22;10675;47.976;7.824;2024-02-23T08:21:25;6.90;99.90
21033;DHT22;10675;47.976;7.824;2024-02-23T08:23:51;7.00;99.50
21033;DHT22;10675;47.976;7.824;2024-02-23T08:26:17;6.90;99.20
21033;DHT22;10675;47.976;7.824;2024-02-23T08:28:43;6.90;99.10
21033;DHT22;10675;47.976;7.824;2024-02-23T08:31:08;7.10;99.10
21033;DHT22;10675;47.976;7.824;2024-02-23T08:33:34;7.20;99.00
21033;DHT22;10675;47.976;7.824;2024-02-23T08:35:59;7.30;98.10
21033;DHT22;10675;47.976;7.824;2024-02-23T08:38:25;7.50;97.80
21033;DHT22;10675;47.976;7.824;2024-02-23T08:40:50;7.70;97.00
21033;DHT22;10675;47.976;7.824;2024-02-23T08:43:16;7.80;98.10
21033;DHT22;10675;47.976;7.824;2024-02-23T08:45:41;8.00;97.90
21033;DHT22;10675;47.976;7.824;2024-02-23T08:48:07;8.10;96.60
21033;DHT22;10675;47.976;7.824;2024-02-23T08:50:33;8.20;96.30
21033;DHT22;10675;47.976;7.824;2024-02-23T08:52:59;8.10;94.40
21033;DHT22;10675;47.976;7.824;2024-02-23T08:55:25;8.10;94.30
21033;DHT22;10675;47.976;7.824;2024-02-23T08:57:50;8.20;94.00
21033;DHT22;10675;47.976;7.824;2024-02-23T09:00:16;8.30;93.70
21033;DHT22;10675;47.976;7.824;2024-02-23T09:02:42;8.40;93.80
21033;DHT22;10675;47.976;7.824;2024-02-23T09:05:08;8.50;92.90
21033;DHT22;10675;47.976;7.824;2024-02-23T09:07:34;8.50;92.10
21033;DHT22;10675;47.976;7.824;2024-02-23T09:10:00;8.60;92.20
21033;DHT22;10675;47.976;7.824;2024-02-23T09:12:26;8.60;91.40
21033;DHT22;10675;47.976;7.824;2024-02-23T09:14:52;8.70;90.90
21033;DHT22;10675;47.976;7.824;2024-02-23T09:17:17;8.50;90.60
21033;DHT22;10675;47.976;7.824;2024-02-23T09:19:44;8.60;91.20
21033;DHT22;10675;47.976;7.824;2024-02-23T09:22:10;8.80;90.60
21033;DHT22;10675;47.976;7.824;2024-02-23T09:24:39;8.70;90.30
21033;DHT22;10675;47.976;7.824;2024-02-23T09:27:05;8.70;89.70
21033;DHT22;10675;47.976;7.824;2024-02-23T09:29:30;8.60;89.80
21033;DHT22;10675;47.976;7.824;2024-02-23T09:31:56;8.60;90.00
21033;DHT22;10675;47.976;7.824;2024-02-23T09:34:21;8.60;89.60
21033;DHT22;10675;47.976;7.824;2024-02-23T09:36:47;8.70;89.50
21033;DHT22;10675;47.976;7.824;2024-02-23T09:39:12;8.60;87.90
21033;DHT22;10675;47.976;7.824;2024-02-23T09:41:39;8.70;89.00
21033;DHT22;10675;47.976;7.824;2024-02-23T09:44:04;8.70;87.90
21033;DHT22;10675;47.976;7.824;2024-02-23T09:46:32;8.80;88.50
21033;DHT22;10675;47.976;7.824;2024-02-23T09:48:59;8.60;86.70
21033;DHT22;10675;47.976;7.824;2024-02-23T09:51:25;8.70;88.50
21033;DHT22;10675;47.976;7.824;2024-02-23T09:53:51;8.90;86.00
21033;DHT22;10675;47.976;7.824;2024-02-23T09:56:17;9.00;87.90
21033;DHT22;10675;47.976;7.824;2024-02-23T09:58:46;8.90;85.80
21033;DHT22;10675;47.976;7.824;2024-02-23T10:01:14;8.80;86.50
21033;DHT22;10675;47.976;7.824;2024-02-23T10:03:41;9.00;86.50
21033;DHT22;10675;47.976;7.824;2024-02-23T10:06:08;9.10;85.40
21033;DHT22;10675;47.976;7.824;2024-02-23T10:08:33;9.20;85.40
21033;DHT22;10675;47.976;7.824;2024-02-23T10:11:00;9.30;84.90
21033;DHT22;10675;47.976;7.824;2024-02-23T10:13:26;9.10;83.80
21033;DHT22;10675;47.976;7.824;2024-02-23T10:15:52;9.30;84.60
21033;DHT22;10675;47.976;7.824;2024-02-23T10:18:18;9.20;83.00
21033;DHT22;10675;47.976;7.824;2024-02-23T10:20:46;9.30;84.70
21033;DHT22;10675;47.976;7.824;2024-02-23T10:23:11;9.70;83.50
21033;DHT22;10675;47.976;7.824;2024-02-23T10:25:37;9.70;82.60
21033;DHT22;10675;47.976;7.824;2024-02-23T10:28:04;9.60;84.20
21033;DHT22;10675;47.976;7.824;2024-02-23T10:30:30;9.80;81.60
21033;DHT22;10675;47.976;7.824;2024-02-23T10:32:58;9.70;82.10
21033;DHT22;10675;47.976;7.824;2024-02-23T10:35:24;9.80;81.50
21033;DHT22;10675;47.976;7.824;2024-02-23T10:37:51;10.00;81.30
21033;DHT22;10675;47.976;7.824;2024-02-23T10:40:19;10.20;80.10
21033;DHT22;10675;47.976;7.824;2024-02-23T10:42:46;10.20;79.70
21033;DHT22;10675;47.976;7.824;2024-02-23T10:45:16;10.20;78.70
21033;DHT22;10675;47.976;7.824;2024-02-23T10:47:42;10.20;76.80
21033;DHT22;10675;47.976;7.824;2024-02-23T10:50:10;9.90;75.40
21033;DHT22;10675;47.976;7.824;2024-02-23T10:52:41;9.90;77.00
21033;DHT22;10675;47.976;7.824;2024-02-23T10:55:08;9.70;76.40
21033;DHT22;10675;47.976;7.824;2024-02-23T10:57:35;9.60;76.70
21033;DHT22;10675;47.976;7.824;2024-02-23T11:00:01;9.70;77.00
21033;DHT22;10675;47.976;7.824;2024-02-23T11:02:31;9.70;77.50
21033;DHT22;10675;47.976;7.824;2024-02-23T11:04:59;9.80;77.50
21033;DHT22;10675;47.976;7.824;2024-02-23T11:07:24;9.90;76.10
21033;DHT22;10675;47.976;7.824;2024-02-23T11:09:54;9.80;77.50
21033;DHT22;10675;47.976;7.824;2024-02-23T11:12:29;9.80;77.60
21033;DHT22;10675;47.976;7.824;2024-02-23T11:14:59;9.80;77.80
21033;DHT22;10675;47.976;7.824;2024-02-23T11:17:30;9.70;78.50
21033;DHT22;10675;47.976;7.824;2024-02-23T11:19:56;9.60;78.60
21033;DHT22;10675;47.976;7.824;2024-02-23T11:22:31;9.60;80.40
21033;DHT22;10675;47.976;7.824;2024-02-23T11:25:04;9.60;78.80
21033;DHT22;10675;47.976;7.824;2024-02-23T11:27:31;9.70;79.00
21033;DHT22;10675;47.976;7.824;2024-02-23T11:30:04;9.40;78.50
21033;DHT22;10675;47.976;7.824;2024-02-23T11:32:43;9.50;79.40
21033;DHT22;10675;47.976;7.824;2024-02-23T11:35:11;9.90;78.40
21033;DHT22;10675;47.976;7.824;2024-02-23T11:37:54;10.00;77.40
21033;DHT22;10675;47.976;7.824;2024-02-23T11:40:30;10.30;78.40
21033;DHT22;10675;47.976;7.824;2024-02-23T11:42:56;10.70;77.40
21033;DHT22;10675;47.976;7.824;2024-02-23T11:45:21;10.80;74.70
21033;DHT22;10675;47.976;7.824;2024-02-23T11:47:47;11.10;75.10
21033;DHT22;10675;47.976;7.824;2024-02-23T11:50:13;11.00;71.90
21033;DHT22;10675;47.976;7.824;2024-02-23T11:52:40;11.10;73.20
21033;DHT22;10675;47.976;7.824;2024-02-23T11:55:06;10.60;71.00
21033;DHT22;10675;47.976;7.824;2024-02-23T11:57:34;10.40;71.10
21033;DHT22;10675;47.976;7.824;2024-02-23T12:00:01;10.80;72.50
21033;DHT22;10675;47.976;7.824;2024-02-23T12:02:27;11.00;72.90
21033;DHT22;10675;47.976;7.824;2024-02-23T12:04:53;11.00;72.50
21033;DHT22;10675;47.976;7.824;2024-02-23T12:07:18;11.20;72.20
21033;DHT22;10675;47.976;7.824;2024-02-23T12:09:45;11.00;72.00
21033;DHT22;10675;47.976;7.824;2024-02-23T12:12:11;10.70;74.00
21033;DHT22;10675;47.976;7.824;2024-02-23T12:14:37;10.70;72.60
21033;DHT22;10675;47.976;7.824;2024-02-23T12:17:03;10.60;74.30
21033;DHT22;10675;47.976;7.824;2024-02-23T12:19:32;10.30;74.40
21033;DHT22;10675;47.976;7.824;2024-02-23T12:22:01;10.30;73.50
21033;DHT22;10675;47.976;7.824;2024-02-23T12:24:26;10.60;72.80
21033;DHT22;10675;47.976;7.824;2024-02-23T12:26:55;11.00;73.20
21033;DHT22;10675;47.976;7.824;2024-02-23T12:29:20;10.80;70.90
21033;DHT22;10675;47.976;7.824;2024-02-23T12:31:46;10.70;71.60
21033;DHT22;10675;47.976;7.824;2024-02-23T12:34:11;10.70;71.70
21033;DHT22;10675;47.976;7.824;2024-02-23T12:36:39;11.20;72.50
21033;DHT22;10675;47.976;7.824;2024-02-23T12:39:05;11.30;70.80
21033;DHT22;10675;47.976;7.824;2024-02-23T12:41:31;11.10;70.10
21033;DHT22;10675;47.976;7.824;2024-02-23T12:43:56;11.20;72.20
21033;DHT22;10675;47.976;7.824;2024-02-23T12:46:22;11.00;69.80
21033;DHT22;10675;47.976;7.824;2024-02-23T12:48:49;10.90;71.70
21033;DHT22;10675;47.976;7.824;2024-02-23T12:51:15;11.00;71.60
21033;DHT22;10675;47.976;7.824;2024-02-23T12:53:41;11.00;70.90
21033;DHT22;10675;47.976;7.824;2024-02-23T12:56:12;11.00;70.50
21033;DHT22;10675;47.976;7.824;2024-02-23T12:58:40;11.10;70.70
21033;DHT22;10675;47.976;7.824;2024-02-23T13:01:05;11.10;69.30
21033;DHT22;10675;47.976;7.824;2024-02-23T13:03:33;10.90;69.10
21033;DHT22;10675;47.976;7.824;2024-02-23T13:05:59;11.00;70.10
21033;DHT22;10675;47.976;7.824;2024-02-23T13:08:25;11.60;70.10
21033;DHT22;10675;47.976;7.824;2024-02-23T13:10:52;11.70;70.30
21033;DHT22;10675;47.976;7.824;2024-02-23T13:13:18;11.90;71.20
21033;DHT22;10675;47.976;7.824;2024-02-23T13:15:45;12.00;68.90
21033;DHT22;10675;47.976;7.824;2024-02-23T13:18:11;11.60;66.40
21033;DHT22;10675;47.976;7.824;2024-02-23T13:20:40;11.40;67.60
21033;DHT22;10675;47.976;7.824;2024-02-23T13:23:12;11.30;68.80
21033;DHT22;10675;47.976;7.824;2024-02-23T13:25:38;11.10;67.30
21033;DHT22;10675;47.976;7.824;2024-02-23T13:28:05;10.80;68.20
21033;DHT22;10675;47.976;7.824;2024-02-23T13:30:35;11.00;68.90
21033;DHT22;10675;47.976;7.824;2024-02-23T13:33:01;10.90;69.00
21033;DHT22;10675;47.976;7.824;2024-02-23T13:35:27;11.00;69.60
21033;DHT22;10675;47.976;7.824;2024-02-23T13:37:52;10.90;68.80
21033;DHT22;10675;47.976;7.824;2024-02-23T13:40:18;10.80;68.10
21033;DHT22;10675;47.976;7.824;2024-02-23T13:42:44;10.90;69.20
21033;DHT22;10675;47.976;7.824;2024-02-23T13:45:15;10.80;68.30
21033;DHT22;10675;47.976;7.824;2024-02-23T13:47:42;10.80;68.70
21033;DHT22;10675;47.976;7.824;2024-02-23T13:50:08;10.70;69.80
21033;DHT22;10675;47.976;7.824;2024-02-23T13:52:34;10.60;68.10
21033;DHT22;10675;47.976;7.824;2024-02-23T13:55:00;10.60;69.80
21033;DHT22;10675;47.976;7.824;2024-02-23T13:57:25;10.70;70.60
21033;DHT22;10675;47.976;7.824;2024-02-23T13:59:51;10.60;70.30
21033;DHT22;10675;47.976;7.824;2024-02-23T14:02:24;10.50;70.50
21033;DHT22;10675;47.976;7.824;2024-02-23T14:04:49;10.40;72.40
21033;DHT22;10675;47.976;7.824;2024-02-23T14:07:15;10.30;72.80
21033;DHT22;10675;47.976;7.824;2024-02-23T14:09:40;10.30;72.00
21033;DHT22;10675;47.976;7.824;2024-02-23T14:12:06;10.60;73.10
21033;DHT22;10675;47.976;7.824;2024-02-23T14:14:32;10.40;75.80
21033;DHT22;10675;47.976;7.824;2024-02-23T14:16:57;10.40;76.60
21033;DHT22;10675;47.976;7.824;2024-02-23T14:19:23;10.30;77.00
21033;DHT22;10675;47.976;7.824;2024-02-23T14:21:50;10.30;74.90
21033;DHT22;10675;47.976;7.824;2024-02-23T14:24:16;10.40;74.30
21033;DHT22;10675;47.976;7.824;2024-02-23T14:26:42;10.50;75.70
21033;DHT22;10675;47.976;7.824;2024-02-23T14:29:07;10.70;75.50
21033;DHT22;10675;47.976;7.824;2024-02-23T14:31:33;10.90;76.60
21033;DHT22;10675;47.976;7.824;2024-02-23T14:33:59;10.90;74.00
21033;DHT22;10675;47.976;7.824;2024-02-23T14:36:24;11.00;73.60
21033;DHT22;10675;47.976;7.824;2024-02-23T14:38:50;11.00;73.50
21033;DHT22;10675;47.976;7.824;2024-02-23T14:41:15;11.00;74.90
21033;DHT22;10675;47.976;7.824;2024-02-23T14:43:41;10.90;74.80
21033;DHT22;10675;47.976;7.824;2024-02-23T14:46:06;10.80;74.00
21033;DHT22;10675;47.976;7.824;2024-02-23T14:48:34;11.30;75.00
21033;DHT22;10675;47.976;7.824;2024-02-23T14:51:00;11.90;73.70
21033;DHT22;10675;47.976;7.824;2024-02-23T14:53:28;12.00;71.70
21033;DHT22;10675;47.976;7.824;2024-02-23T14:55:53;12.00;71.80
21033;DHT22;10675;47.976;7.824;2024-02-23T14:58:19;12.10;72.10
21033;DHT22;10675;47.976;7.824;2024-02-23T15:00:45;12.70;70.00
21033;DHT22;10675;47.976;7.824;2024-02-23T15:03:10;13.60;69.40
21033;DHT22;10675;47.976;7.824;2024-02-23T15:05:36;14.30;64.10
21033;DHT22;10675;47.976;7.824;2024-02-23T15:08:01;15.00;59.30
21033;DHT22;10675;47.976;7.824;2024-02-23T15:10:27;15.20;59.10
21033;DHT22;10675;47.976;7.824;2024-02-23T15:12:53;15.40;56.20
21033;DHT22;10675;47.976;7.824;2024-02-23T15:15:19;14.50;50.60
21033;DHT22;10675;47.976;7.824;2024-02-23T15:17:45;14.10;53.20
21033;DHT22;10675;47.976;7.824;2024-02-23T15:20:12;13.40;53.30
21033;DHT22;10675;47.976;7.824;2024-02-23T15:22:38;13.30;56.20
21033;DHT22;10675;47.976;7.824;2024-02-23T15:25:07;13.50;57.10
21033;DHT22;10675;47.976;7.824;2024-02-23T15:27:34;13.80;56.20
21033;DHT22;10675;47.976;7.824;2024-02-23T15:30:00;13.50;55.00
21033;DHT22;10675;47.976;7.824;2024-02-23T15:32:25;13.50;55.20
21033;DHT22;10675;47.976;7.824;2024-02-23T15:34:51;13.10;56.90
21033;DHT22;10675;47.976;7.824;2024-02-23T15:37:16;12.50;55.80